Pronoi R — 9HA2951 — position and weather

sailwx.info

Track history (hours):
 
Tides and Currents Weather Stations Pressure Air Temp Water Temp Dewpoint Dewpoint Depression Visibility Wind Speed Wind Dir Waves Ship Positions

Pronoi R

Last reported at 2018-May-08 19:29 UTC. Time now 2018-Jun-25 05:37 UTC.
Position N 01°21' E 103°16'.
Warning: this ship's position is 47 days out of date.

Length 200 m; draft 13.6 m.

Type: Cargo ship. MMSI: 256879000.

Date/timePositionNaut miles runAvg speedWind from/ knotsBaromVisibWave heightAir tempDewpointWater temp
2018-May-08 19:29N 01°21' E 103°16'713.9
2018-May-08 18:58N 01°17' E 103°22'614.0
2018-May-08 18:30N 01°14' E 103°27'814.3
2018-May-08 17:59N 01°12' E 103°35'613.5
2018-May-08 17:30N 01°10' E 103°41'611.5
2018-May-08 17:00N 01°10' E 103°47'714.1
2018-May-08 16:30N 01°13' E 103°53'713.0
2018-May-08 15:58N 01°15' E 103°60'1 2.3
2018-May-08 15:30N 01°16' E 103°60'2 2.2
2018-May-08 14:49N 01°17' E 103°58'0 0.0
2018-May-08 14:27N 01°17' E 103°58'0 0.0
2018-May-08 13:39N 01°17' E 103°58'0 0.0
2018-May-08 13:24N 01°17' E 103°58'0 0.0
2018-May-08 13:00N 01°17' E 103°58'0 0.0
2018-May-08 12:27N 01°17' E 103°58'0 0.0
2018-May-08 11:34N 01°17' E 103°58'0 0.0
2018-May-08 11:24N 01°17' E 103°58'0 0.0
2018-May-08 10:52N 01°17' E 103°58'0 0.0
2018-May-08 10:27N 01°17' E 103°58'0 0.0
2018-May-08 09:55N 01°17' E 103°58'0 0.0
2018-May-08 09:21N 01°17' E 103°58'0 0.0
2018-May-08 08:54N 01°17' E 103°58'0 0.1
2018-May-08 08:20N 01°17' E 103°58'0 0.0
2018-May-08 08:00N 01°17' E 103°58'0 0.1
2018-May-08 07:20N 01°17' E 103°58'0 0.2
2018-May-08 06:43N 01°17' E 103°58'0 0.1
2018-May-08 06:26N 01°17' E 103°58'0 0.3
2018-May-08 05:59N 01°17' E 103°59'1 2.9
2018-May-08 05:30N 01°16' E 103°58'0 0.5
2018-May-08 05:00N 01°16' E 103°58'1 1.3
2018-May-08 04:31N 01°16' E 103°59'4 7.3
2018-May-08 03:57N 01°16' E 104°03'5 9.2
2018-May-08 03:24N 01°17' E 104°08'410.3
2018-May-08 02:59N 01°17' E 104°12'510.7
2018-May-08 02:29N 01°18' E 104°18'610.7
2018-May-08 01:58N 01°21' E 104°22'510.7
2018-May-08 01:30N 01°24' E 104°26'3210.7
2018-May-07 22:32N 01°32' E 104°57'313.2
2018-May-07 22:17N 01°30' E 105°00'1313.7
2018-May-07 21:19N 01°26' E 105°13'1113.0
2018-May-07 20:28N 01°20' E 105°22'813.7
2018-May-07 19:54N 01°15' E 105°27'713.6
2018-May-07 19:22N 01°09' E 105°32'513.7
2018-May-07 18:58N 01°05' E 105°36'713.5
2018-May-07 18:27N 01°00' E 105°41'36812.4
2018-May-06 12:44S 03°42' E 109°38'413.8
2018-May-06 12:26S 03°46' E 109°40'613.9
2018-May-06 12:00S 03°51' E 109°42'1213.8
2018-May-06 11:08S 04°02' E 109°47'214.0
2018-May-06 10:59S 04°04' E 109°48'1113.7
2018-May-06 10:10S 04°14' E 109°52'213.5
2018-May-06 10:00S 04°16' E 109°53'612.5
2018-May-06 09:30S 04°20' E 109°58'714.5
2018-May-06 09:00S 04°20' E 110°05'714.6
2018-May-06 08:30S 04°21' E 110°13'714.3
2018-May-06 08:00S 04°22' E 110°20'814.3
2018-May-06 07:25S 04°23' E 110°28'614.2
2018-May-06 07:00S 04°24' E 110°34'814.1
2018-May-06 06:27S 04°25' E 110°42'1014.0
2018-May-06 05:45S 04°26' E 110°52'  
2018-Apr-28 21:18S 05°59' E 113°28'  
Track history (hours):
 
Tides and Currents Weather Stations Pressure Air Temp Water Temp Dewpoint Dewpoint Depression Visibility Wind Speed Wind Dir Waves Ship Positions

Pronoi R

Last reported at 2018-May-08 19:29 UTC. Time now 2018-Jun-25 05:37 UTC.
Position N 01°21' E 103°16'.
Warning: this ship's position is 47 days out of date.

Length 200 m; draft 13.6 m.

Type: Cargo ship. MMSI: 256879000.

Date/timePositionNaut miles runAvg speedWind from/ knotsBaromVisibWave heightAir tempDewpointWater temp
2018-May-08 19:29N 01°21' E 103°16'713.9
2018-May-08 18:58N 01°17' E 103°22'614.0
2018-May-08 18:30N 01°14' E 103°27'814.3
2018-May-08 17:59N 01°12' E 103°35'613.5
2018-May-08 17:30N 01°10' E 103°41'611.5
2018-May-08 17:00N 01°10' E 103°47'714.1
2018-May-08 16:30N 01°13' E 103°53'713.0
2018-May-08 15:58N 01°15' E 103°60'1 2.3
2018-May-08 15:30N 01°16' E 103°60'2 2.2
2018-May-08 14:49N 01°17' E 103°58'0 0.0
2018-May-08 14:27N 01°17' E 103°58'0 0.0
2018-May-08 13:39N 01°17' E 103°58'0 0.0
2018-May-08 13:24N 01°17' E 103°58'0 0.0
2018-May-08 13:00N 01°17' E 103°58'0 0.0
2018-May-08 12:27N 01°17' E 103°58'0 0.0
2018-May-08 11:34N 01°17' E 103°58'0 0.0
2018-May-08 11:24N 01°17' E 103°58'0 0.0
2018-May-08 10:52N 01°17' E 103°58'0 0.0
2018-May-08 10:27N 01°17' E 103°58'0 0.0
2018-May-08 09:55N 01°17' E 103°58'0 0.0
2018-May-08 09:21N 01°17' E 103°58'0 0.0
2018-May-08 08:54N 01°17' E 103°58'0 0.1
2018-May-08 08:20N 01°17' E 103°58'0 0.0
2018-May-08 08:00N 01°17' E 103°58'0 0.1
2018-May-08 07:20N 01°17' E 103°58'0 0.2
2018-May-08 06:43N 01°17' E 103°58'0 0.1
2018-May-08 06:26N 01°17' E 103°58'0 0.3
2018-May-08 05:59N 01°17' E 103°59'1 2.9
2018-May-08 05:30N 01°16' E 103°58'0 0.5
2018-May-08 05:00N 01°16' E 103°58'1 1.3
2018-May-08 04:31N 01°16' E 103°59'4 7.3
2018-May-08 03:57N 01°16' E 104°03'5 9.2
2018-May-08 03:24N 01°17' E 104°08'410.3
2018-May-08 02:59N 01°17' E 104°12'510.7
2018-May-08 02:29N 01°18' E 104°18'610.7
2018-May-08 01:58N 01°21' E 104°22'510.7
2018-May-08 01:30N 01°24' E 104°26'3210.7
2018-May-07 22:32N 01°32' E 104°57'313.2
2018-May-07 22:17N 01°30' E 105°00'1313.7
2018-May-07 21:19N 01°26' E 105°13'1113.0
2018-May-07 20:28N 01°20' E 105°22'813.7
2018-May-07 19:54N 01°15' E 105°27'713.6
2018-May-07 19:22N 01°09' E 105°32'513.7
2018-May-07 18:58N 01°05' E 105°36'713.5
2018-May-07 18:27N 01°00' E 105°41'36812.4
2018-May-06 12:44S 03°42' E 109°38'413.8
2018-May-06 12:26S 03°46' E 109°40'613.9
2018-May-06 12:00S 03°51' E 109°42'1213.8
2018-May-06 11:08S 04°02' E 109°47'214.0
2018-May-06 10:59S 04°04' E 109°48'1113.7
2018-May-06 10:10S 04°14' E 109°52'213.5
2018-May-06 10:00S 04°16' E 109°53'612.5
2018-May-06 09:30S 04°20' E 109°58'714.5
2018-May-06 09:00S 04°20' E 110°05'714.6
2018-May-06 08:30S 04°21' E 110°13'714.3
2018-May-06 08:00S 04°22' E 110°20'814.3
2018-May-06 07:25S 04°23' E 110°28'614.2
2018-May-06 07:00S 04°24' E 110°34'814.1
2018-May-06 06:27S 04°25' E 110°42'1014.0
2018-May-06 05:45S 04°26' E 110°52'  
2018-Apr-28 21:18S 05°59' E 113°28'  

Dump ship's entire track history